sensor_id;sensor_type;location;lat;lon;timestamp;temperature;humidity
75387;DHT22;63966;47.914;22.266;2023-02-23T00:02:16;3.59;69.88
75387;DHT22;63966;47.914;22.266;2023-02-23T00:05:20;3.60;68.83
75387;DHT22;63966;47.914;22.266;2023-02-23T00:08:24;3.75;68.31
75387;DHT22;63966;47.914;22.266;2023-02-23T00:11:30;3.80;67.91
75387;DHT22;63966;47.914;22.266;2023-02-23T00:14:36;3.76;68.20
75387;DHT22;63966;47.914;22.266;2023-02-23T00:17:40;3.76;67.83
75387;DHT22;63966;47.914;22.266;2023-02-23T00:20:44;3.72;68.04
75387;DHT22;63966;47.914;22.266;2023-02-23T00:23:55;3.73;68.07
75387;DHT22;63966;47.914;22.266;2023-02-23T00:26:59;3.66;68.42
75387;DHT22;63966;47.914;22.266;2023-02-23T00:30:10;3.59;68.57
75387;DHT22;63966;47.914;22.266;2023-02-23T00:33:15;3.58;68.90
75387;DHT22;63966;47.914;22.266;2023-02-23T00:36:20;3.62;68.72
75387;DHT22;63966;47.914;22.266;2023-02-23T00:39:24;3.55;68.76
75387;DHT22;63966;47.914;22.266;2023-02-23T00:42:31;3.54;68.73
75387;DHT22;63966;47.914;22.266;2023-02-23T00:45:36;3.48;69.01
75387;DHT22;63966;47.914;22.266;2023-02-23T00:48:40;3.48;68.86
75387;DHT22;63966;47.914;22.266;2023-02-23T00:51:44;3.51;68.44
75387;DHT22;63966;47.914;22.266;2023-02-23T00:54:49;3.54;68.47
75387;DHT22;63966;47.914;22.266;2023-02-23T00:57:53;3.48;68.54
75387;DHT22;63966;47.914;22.266;2023-02-23T01:00:57;3.45;68.74
75387;DHT22;63966;47.914;22.266;2023-02-23T01:04:04;3.49;68.59
75387;DHT22;63966;47.914;22.266;2023-02-23T01:07:08;3.48;68.54
75387;DHT22;63966;47.914;22.266;2023-02-23T01:10:15;3.63;67.88
75387;DHT22;63966;47.914;22.266;2023-02-23T01:13:23;3.69;67.46
75387;DHT22;63966;47.914;22.266;2023-02-23T01:16:32;3.79;67.89
75387;DHT22;63966;47.914;22.266;2023-02-23T01:19:37;3.82;67.80
75387;DHT22;63966;47.914;22.266;2023-02-23T01:22:41;3.72;67.87
75387;DHT22;63966;47.914;22.266;2023-02-23T01:25:47;3.66;68.07
75387;DHT22;63966;47.914;22.266;2023-02-23T01:28:53;3.49;68.63
75387;DHT22;63966;47.914;22.266;2023-02-23T01:32:00;3.56;68.58
75387;DHT22;63966;47.914;22.266;2023-02-23T01:35:10;3.56;68.43
75387;DHT22;63966;47.914;22.266;2023-02-23T01:38:14;3.65;68.40
75387;DHT22;63966;47.914;22.266;2023-02-23T01:41:18;3.54;68.63
75387;DHT22;63966;47.914;22.266;2023-02-23T01:47:30;3.48;68.85
75387;DHT22;63966;47.914;22.266;2023-02-23T01:51:11;3.46;69.02
75387;DHT22;63966;47.914;22.266;2023-02-23T01:54:19;3.35;69.70
75387;DHT22;63966;47.914;22.266;2023-02-23T01:57:24;3.12;70.37
75387;DHT22;63966;47.914;22.266;2023-02-23T02:00:29;3.32;69.20
75387;DHT22;63966;47.914;22.266;2023-02-23T02:06:50;3.04;70.11
75387;DHT22;63966;47.914;22.266;2023-02-23T02:09:57;3.03;70.36
75387;DHT22;63966;47.914;22.266;2023-02-23T02:13:16;2.99;70.70
75387;DHT22;63966;47.914;22.266;2023-02-23T02:23:38;2.72;71.56
75387;DHT22;63966;47.914;22.266;2023-02-23T02:43:37;2.79;71.16
75387;DHT22;63966;47.914;22.266;2023-02-23T02:46:52;2.64;71.44
75387;DHT22;63966;47.914;22.266;2023-02-23T02:53:49;2.50;71.79
75387;DHT22;63966;47.914;22.266;2023-02-23T02:56:57;2.41;72.07
75387;DHT22;63966;47.914;22.266;2023-02-23T03:00:04;2.17;72.90
75387;DHT22;63966;47.914;22.266;2023-02-23T03:03:39;2.07;73.53
75387;DHT22;63966;47.914;22.266;2023-02-23T03:07:09;2.08;73.33
75387;DHT22;63966;47.914;22.266;2023-02-23T03:17:55;2.04;73.52
75387;DHT22;63966;47.914;22.266;2023-02-23T03:21:53;2.10;73.24
75387;DHT22;63966;47.914;22.266;2023-02-23T03:25:34;2.04;73.23
75387;DHT22;63966;47.914;22.266;2023-02-23T03:29:54;1.95;73.64
75387;DHT22;63966;47.914;22.266;2023-02-23T03:32:53;1.77;74.38
75387;DHT22;63966;47.914;22.266;2023-02-23T03:36:25;1.66;74.93
75387;DHT22;63966;47.914;22.266;2023-02-23T03:40:00;1.57;75.61
75387;DHT22;63966;47.914;22.266;2023-02-23T03:43:33;1.40;76.43
75387;DHT22;63966;47.914;22.266;2023-02-23T03:46:57;1.15;77.53
75387;DHT22;63966;47.914;22.266;2023-02-23T03:50:35;0.95;78.59
75387;DHT22;63966;47.914;22.266;2023-02-23T03:54:34;0.95;78.23
75387;DHT22;63966;47.914;22.266;2023-02-23T03:57:59;1.02;77.71
75387;DHT22;63966;47.914;22.266;2023-02-23T04:01:24;1.05;77.54
75387;DHT22;63966;47.914;22.266;2023-02-23T04:04:48;1.04;77.77
75387;DHT22;63966;47.914;22.266;2023-02-23T04:08:13;0.84;78.73
75387;DHT22;63966;47.914;22.266;2023-02-23T04:11:49;0.78;78.63
75387;DHT22;63966;47.914;22.266;2023-02-23T04:15:26;0.57;79.29
75387;DHT22;63966;47.914;22.266;2023-02-23T04:18:34;0.39;80.00
75387;DHT22;63966;47.914;22.266;2023-02-23T04:21:37;0.26;80.74
75387;DHT22;63966;47.914;22.266;2023-02-23T04:24:41;0.23;80.68
75387;DHT22;63966;47.914;22.266;2023-02-23T04:27:44;0.22;80.81
75387;DHT22;63966;47.914;22.266;2023-02-23T04:30:48;0.16;81.06
75387;DHT22;63966;47.914;22.266;2023-02-23T04:33:54;0.13;81.48
75387;DHT22;63966;47.914;22.266;2023-02-23T04:36:57;0.23;81.33
75387;DHT22;63966;47.914;22.266;2023-02-23T04:40:01;0.22;81.62
75387;DHT22;63966;47.914;22.266;2023-02-23T04:43:05;0.29;81.41
75387;DHT22;63966;47.914;22.266;2023-02-23T04:46:08;0.22;81.51
75387;DHT22;63966;47.914;22.266;2023-02-23T04:49:12;0.12;82.07
75387;DHT22;63966;47.914;22.266;2023-02-23T04:52:15;0.06;82.39
75387;DHT22;63966;47.914;22.266;2023-02-23T04:55:23;-0.05;82.74
75387;DHT22;63966;47.914;22.266;2023-02-23T04:58:28;-0.15;83.01
75387;DHT22;63966;47.914;22.266;2023-02-23T05:01:32;-0.22;83.51
75387;DHT22;63966;47.914;22.266;2023-02-23T05:04:35;-0.19;83.46
75387;DHT22;63966;47.914;22.266;2023-02-23T05:07:39;-0.01;82.33
75387;DHT22;63966;47.914;22.266;2023-02-23T05:10:44;0.23;81.47
75387;DHT22;63966;47.914;22.266;2023-02-23T05:13:48;0.40;80.31
75387;DHT22;63966;47.914;22.266;2023-02-23T05:16:51;0.40;80.14
75387;DHT22;63966;47.914;22.266;2023-02-23T05:19:55;0.32;80.82
75387;DHT22;63966;47.914;22.266;2023-02-23T05:22:59;0.13;81.48
75387;DHT22;63966;47.914;22.266;2023-02-23T05:26:05;0.01;82.12
75387;DHT22;63966;47.914;22.266;2023-02-23T05:29:09;-0.05;82.53
75387;DHT22;63966;47.914;22.266;2023-02-23T05:32:13;0.35;80.97
75387;DHT22;63966;47.914;22.266;2023-02-23T05:35:17;0.66;79.93
75387;DHT22;63966;47.914;22.266;2023-02-23T05:38:21;1.12;77.90
75387;DHT22;63966;47.914;22.266;2023-02-23T05:41:25;1.66;75.75
75387;DHT22;63966;47.914;22.266;2023-02-23T05:44:28;2.00;75.31
75387;DHT22;63966;47.914;22.266;2023-02-23T05:47:32;2.31;73.06
75387;DHT22;63966;47.914;22.266;2023-02-23T05:50:37;2.46;72.39
75387;DHT22;63966;47.914;22.266;2023-02-23T05:53:41;2.38;73.42
75387;DHT22;63966;47.914;22.266;2023-02-23T05:56:45;2.25;74.47
75387;DHT22;63966;47.914;22.266;2023-02-23T05:59:48;2.24;74.70
75387;DHT22;63966;47.914;22.266;2023-02-23T06:02:52;2.20;75.34
75387;DHT22;63966;47.914;22.266;2023-02-23T06:05:57;2.25;75.79
75387;DHT22;63966;47.914;22.266;2023-02-23T06:09:02;2.31;75.79
75387;DHT22;63966;47.914;22.266;2023-02-23T06:12:06;2.45;76.00
75387;DHT22;63966;47.914;22.266;2023-02-23T06:15:11;2.67;75.06
75387;DHT22;63966;47.914;22.266;2023-02-23T06:18:15;2.90;73.92
75387;DHT22;63966;47.914;22.266;2023-02-23T06:21:19;3.07;73.74
75387;DHT22;63966;47.914;22.266;2023-02-23T06:24:23;3.18;73.54
75387;DHT22;63966;47.914;22.266;2023-02-23T06:27:27;3.43;71.87
75387;DHT22;63966;47.914;22.266;2023-02-23T06:30:30;3.83;68.96
75387;DHT22;63966;47.914;22.266;2023-02-23T06:33:34;4.04;67.81
75387;DHT22;63966;47.914;22.266;2023-02-23T06:36:38;4.40;66.54
75387;DHT22;63966;47.914;22.266;2023-02-23T06:39:41;4.73;65.48
75387;DHT22;63966;47.914;22.266;2023-02-23T06:42:45;5.19;64.01
75387;DHT22;63966;47.914;22.266;2023-02-23T06:45:49;5.59;62.22
75387;DHT22;63966;47.914;22.266;2023-02-23T06:48:56;5.73;61.68
75387;DHT22;63966;47.914;22.266;2023-02-23T06:52:01;6.00;61.13
75387;DHT22;63966;47.914;22.266;2023-02-23T06:55:06;6.02;61.17
75387;DHT22;63966;47.914;22.266;2023-02-23T06:58:10;6.54;59.88
75387;DHT22;63966;47.914;22.266;2023-02-23T07:01:14;6.98;58.32
75387;DHT22;63966;47.914;22.266;2023-02-23T07:04:18;7.20;58.82
75387;DHT22;63966;47.914;22.266;2023-02-23T07:07:22;7.24;56.81
75387;DHT22;63966;47.914;22.266;2023-02-23T07:10:25;6.93;57.34
75387;DHT22;63966;47.914;22.266;2023-02-23T07:13:29;7.48;57.19
75387;DHT22;63966;47.914;22.266;2023-02-23T07:16:33;7.94;57.53
75387;DHT22;63966;47.914;22.266;2023-02-23T07:19:36;8.54;54.27
75387;DHT22;63966;47.914;22.266;2023-02-23T07:22:42;9.40;51.66
75387;DHT22;63966;47.914;22.266;2023-02-23T07:25:46;10.08;49.83
75387;DHT22;63966;47.914;22.266;2023-02-23T07:28:49;9.87;50.08
75387;DHT22;63966;47.914;22.266;2023-02-23T07:31:56;10.11;49.64
75387;DHT22;63966;47.914;22.266;2023-02-23T07:34:59;10.36;50.74
75387;DHT22;63966;47.914;22.266;2023-02-23T07:38:03;10.67;49.41
75387;DHT22;63966;47.914;22.266;2023-02-23T07:41:09;10.43;48.62
75387;DHT22;63966;47.914;22.266;2023-02-23T07:44:13;10.69;48.18
75387;DHT22;63966;47.914;22.266;2023-02-23T07:47:17;11.68;46.33
75387;DHT22;63966;47.914;22.266;2023-02-23T07:50:20;11.72;46.03
75387;DHT22;63966;47.914;22.266;2023-02-23T07:53:24;11.90;45.88
75387;DHT22;63966;47.914;22.266;2023-02-23T07:56:30;11.93;45.86
75387;DHT22;63966;47.914;22.266;2023-02-23T07:59:33;11.63;47.36
75387;DHT22;63966;47.914;22.266;2023-02-23T08:02:37;11.98;45.37
75387;DHT22;63966;47.914;22.266;2023-02-23T08:05:40;12.34;44.12
75387;DHT22;63966;47.914;22.266;2023-02-23T08:08:46;12.49;44.37
75387;DHT22;63966;47.914;22.266;2023-02-23T08:11:50;12.03;44.74
75387;DHT22;63966;47.914;22.266;2023-02-23T08:14:54;11.61;46.65
75387;DHT22;63966;47.914;22.266;2023-02-23T08:17:57;10.93;48.35
75387;DHT22;63966;47.914;22.266;2023-02-23T08:21:03;10.22;50.86
75387;DHT22;63966;47.914;22.266;2023-02-23T08:24:07;9.54;52.79
75387;DHT22;63966;47.914;22.266;2023-02-23T08:27:10;9.47;52.72
75387;DHT22;63966;47.914;22.266;2023-02-23T08:30:15;9.15;54.76
75387;DHT22;63966;47.914;22.266;2023-02-23T08:33:19;8.74;56.38
75387;DHT22;63966;47.914;22.266;2023-02-23T08:36:22;8.44;56.04
75387;DHT22;63966;47.914;22.266;2023-02-23T08:39:26;8.22;59.84
75387;DHT22;63966;47.914;22.266;2023-02-23T08:42:30;7.99;58.77
75387;DHT22;63966;47.914;22.266;2023-02-23T08:45:33;7.82;59.26
75387;DHT22;63966;47.914;22.266;2023-02-23T08:48:37;8.02;61.00
75387;DHT22;63966;47.914;22.266;2023-02-23T08:51:43;7.96;60.83
75387;DHT22;63966;47.914;22.266;2023-02-23T08:54:49;8.30;59.86
75387;DHT22;63966;47.914;22.266;2023-02-23T08:57:53;8.21;59.88
75387;DHT22;63966;47.914;22.266;2023-02-23T09:00:57;8.19;58.42
75387;DHT22;63966;47.914;22.266;2023-02-23T09:04:00;8.10;60.20
75387;DHT22;63966;47.914;22.266;2023-02-23T09:07:05;7.89;60.17
75387;DHT22;63966;47.914;22.266;2023-02-23T09:10:09;7.84;61.77
75387;DHT22;63966;47.914;22.266;2023-02-23T09:13:14;8.16;60.62
75387;DHT22;63966;47.914;22.266;2023-02-23T09:16:19;8.29;58.21
75387;DHT22;63966;47.914;22.266;2023-02-23T09:19:23;8.33;61.70
75387;DHT22;63966;47.914;22.266;2023-02-23T09:22:27;8.32;59.46
75387;DHT22;63966;47.914;22.266;2023-02-23T09:25:31;8.28;60.06
75387;DHT22;63966;47.914;22.266;2023-02-23T09:28:35;8.32;60.43
75387;DHT22;63966;47.914;22.266;2023-02-23T09:31:40;8.34;61.20
75387;DHT22;63966;47.914;22.266;2023-02-23T09:34:46;8.39;59.10
75387;DHT22;63966;47.914;22.266;2023-02-23T09:37:52;8.32;59.83
75387;DHT22;63966;47.914;22.266;2023-02-23T09:40:57;8.50;58.31
75387;DHT22;63966;47.914;22.266;2023-02-23T09:44:15;8.29;59.85
75387;DHT22;63966;47.914;22.266;2023-02-23T09:47:31;8.40;59.59
75387;DHT22;63966;47.914;22.266;2023-02-23T09:50:38;8.47;59.36
75387;DHT22;63966;47.914;22.266;2023-02-23T09:53:54;8.51;62.73
75387;DHT22;63966;47.914;22.266;2023-02-23T09:57:00;8.59;59.94
75387;DHT22;63966;47.914;22.266;2023-02-23T10:00:33;8.80;57.80
75387;DHT22;63966;47.914;22.266;2023-02-23T10:06:58;8.71;55.90
75387;DHT22;63966;47.914;22.266;2023-02-23T10:20:12;8.63;55.92
75387;DHT22;63966;47.914;22.266;2023-02-23T10:23:29;8.77;53.60
75387;DHT22;63966;47.914;22.266;2023-02-23T10:26:38;8.63;54.15
75387;DHT22;63966;47.914;22.266;2023-02-23T10:29:50;8.80;56.07
75387;DHT22;63966;47.914;22.266;2023-02-23T10:36:33;9.15;54.70
75387;DHT22;63966;47.914;22.266;2023-02-23T10:39:40;9.14;53.19
75387;DHT22;63966;47.914;22.266;2023-02-23T10:42:44;9.29;56.08
75387;DHT22;63966;47.914;22.266;2023-02-23T10:45:50;9.28;53.12
75387;DHT22;63966;47.914;22.266;2023-02-23T10:48:54;9.25;54.56
75387;DHT22;63966;47.914;22.266;2023-02-23T10:51:59;9.39;54.29
75387;DHT22;63966;47.914;22.266;2023-02-23T10:55:09;9.47;53.43
75387;DHT22;63966;47.914;22.266;2023-02-23T10:58:25;9.39;57.15
75387;DHT22;63966;47.914;22.266;2023-02-23T11:01:37;9.53;55.51
75387;DHT22;63966;47.914;22.266;2023-02-23T11:04:59;9.61;55.02
75387;DHT22;63966;47.914;22.266;2023-02-23T11:08:25;9.67;53.77
75387;DHT22;63966;47.914;22.266;2023-02-23T11:11:29;9.70;54.40
75387;DHT22;63966;47.914;22.266;2023-02-23T11:14:33;9.80;54.09
75387;DHT22;63966;47.914;22.266;2023-02-23T11:17:37;9.49;53.04
75387;DHT22;63966;47.914;22.266;2023-02-23T11:20:41;9.57;53.72
75387;DHT22;63966;47.914;22.266;2023-02-23T11:23:45;9.76;52.83
75387;DHT22;63966;47.914;22.266;2023-02-23T11:26:56;9.73;53.26
75387;DHT22;63966;47.914;22.266;2023-02-23T11:30:05;9.73;53.95
75387;DHT22;63966;47.914;22.266;2023-02-23T11:33:19;9.87;55.13
75387;DHT22;63966;47.914;22.266;2023-02-23T11:39:33;10.08;53.82
75387;DHT22;63966;47.914;22.266;2023-02-23T11:42:37;10.04;49.59
75387;DHT22;63966;47.914;22.266;2023-02-23T11:45:58;9.98;51.84
75387;DHT22;63966;47.914;22.266;2023-02-23T11:49:06;10.14;52.99
75387;DHT22;63966;47.914;22.266;2023-02-23T11:52:22;10.26;52.00
75387;DHT22;63966;47.914;22.266;2023-02-23T11:55:28;10.18;52.42
75387;DHT22;63966;47.914;22.266;2023-02-23T11:58:49;10.31;53.24
75387;DHT22;63966;47.914;22.266;2023-02-23T12:02:05;10.24;53.39
75387;DHT22;63966;47.914;22.266;2023-02-23T12:05:29;10.19;50.55
75387;DHT22;63966;47.914;22.266;2023-02-23T12:08:50;10.18;50.81
75387;DHT22;63966;47.914;22.266;2023-02-23T12:12:08;10.18;51.01
75387;DHT22;63966;47.914;22.266;2023-02-23T12:15:56;10.28;50.41
75387;DHT22;63966;47.914;22.266;2023-02-23T12:22:21;10.12;50.07
75387;DHT22;63966;47.914;22.266;2023-02-23T12:25:41;10.15;49.66
75387;DHT22;63966;47.914;22.266;2023-02-23T12:28:53;10.32;49.21
75387;DHT22;63966;47.914;22.266;2023-02-23T12:32:10;10.32;49.87
75387;DHT22;63966;47.914;22.266;2023-02-23T12:35:26;10.38;50.10
75387;DHT22;63966;47.914;22.266;2023-02-23T12:38:54;10.43;50.75
75387;DHT22;63966;47.914;22.266;2023-02-23T12:46:13;10.50;48.42
75387;DHT22;63966;47.914;22.266;2023-02-23T12:52:33;10.46;47.57
75387;DHT22;63966;47.914;22.266;2023-02-23T13:02:41;10.56;46.61
75387;DHT22;63966;47.914;22.266;2023-02-23T13:06:14;10.56;46.32
75387;DHT22;63966;47.914;22.266;2023-02-23T13:16:41;10.49;48.17
75387;DHT22;63966;47.914;22.266;2023-02-23T13:27:30;10.53;46.48
75387;DHT22;63966;47.914;22.266;2023-02-23T13:30:36;10.67;49.05
75387;DHT22;63966;47.914;22.266;2023-02-23T13:33:44;10.62;47.13
75387;DHT22;63966;47.914;22.266;2023-02-23T13:36:48;10.45;47.30
75387;DHT22;63966;47.914;22.266;2023-02-23T13:43:12;10.62;46.08
75387;DHT22;63966;47.914;22.266;2023-02-23T13:53:42;10.21;47.61
75387;DHT22;63966;47.914;22.266;2023-02-23T13:56:54;10.28;47.61
75387;DHT22;63966;47.914;22.266;2023-02-23T13:59:59;10.41;46.80
75387;DHT22;63966;47.914;22.266;2023-02-23T14:03:05;10.49;46.37
75387;DHT22;63966;47.914;22.266;2023-02-23T14:06:13;10.55;48.15
75387;DHT22;63966;47.914;22.266;2023-02-23T14:09:33;10.46;47.72
75387;DHT22;63966;47.914;22.266;2023-02-23T14:12:39;10.48;47.18
75387;DHT22;63966;47.914;22.266;2023-02-23T14:15:46;10.42;46.84
75387;DHT22;63966;47.914;22.266;2023-02-23T14:19:05;10.26;46.90
75387;DHT22;63966;47.914;22.266;2023-02-23T14:22:13;10.29;46.98
75387;DHT22;63966;47.914;22.266;2023-02-23T14:25:51;10.16;47.02
75387;DHT22;63966;47.914;22.266;2023-02-23T14:38:37;10.05;47.78
75387;DHT22;63966;47.914;22.266;2023-02-23T14:41:54;10.04;47.57
75387;DHT22;63966;47.914;22.266;2023-02-23T14:45:04;9.93;48.16
75387;DHT22;63966;47.914;22.266;2023-02-23T14:48:11;9.86;48.03
75387;DHT22;63966;47.914;22.266;2023-02-23T14:52:12;9.78;48.40
75387;DHT22;63966;47.914;22.266;2023-02-23T14:58:29;9.67;49.72
75387;DHT22;63966;47.914;22.266;2023-02-23T15:02:06;9.60;50.17
75387;DHT22;63966;47.914;22.266;2023-02-23T15:06:00;9.53;50.76
75387;DHT22;63966;47.914;22.266;2023-02-23T15:09:04;9.47;51.04
75387;DHT22;63966;47.914;22.266;2023-02-23T15:12:27;9.38;51.85
75387;DHT22;63966;47.914;22.266;2023-02-23T15:15:31;9.29;52.29
75387;DHT22;63966;47.914;22.266;2023-02-23T15:18:42;9.22;50.84
75387;DHT22;63966;47.914;22.266;2023-02-23T15:21:54;9.19;50.86
75387;DHT22;63966;47.914;22.266;2023-02-23T15:25:00;9.07;51.35
75387;DHT22;63966;47.914;22.266;2023-02-23T15:31:29;8.91;53.71
75387;DHT22;63966;47.914;22.266;2023-02-23T15:34:34;8.82;54.30
75387;DHT22;63966;47.914;22.266;2023-02-23T15:37:48;8.75;54.97
75387;DHT22;63966;47.914;22.266;2023-02-23T15:41:35;8.67;55.44
75387;DHT22;63966;47.914;22.266;2023-02-23T15:44:39;8.68;56.11
75387;DHT22;63966;47.914;22.266;2023-02-23T15:47:47;8.56;56.66
75387;DHT22;63966;47.914;22.266;2023-02-23T15:50:56;8.44;57.91
75387;DHT22;63966;47.914;22.266;2023-02-23T15:54:01;8.39;59.10
75387;DHT22;63966;47.914;22.266;2023-02-23T15:57:15;8.34;58.90
75387;DHT22;63966;47.914;22.266;2023-02-23T16:00:26;8.19;58.94
75387;DHT22;63966;47.914;22.266;2023-02-23T16:03:38;8.13;59.05
75387;DHT22;63966;47.914;22.266;2023-02-23T16:06:53;8.03;58.56
75387;DHT22;63966;47.914;22.266;2023-02-23T16:10:38;7.82;59.05
75387;DHT22;63966;47.914;22.266;2023-02-23T16:13:46;7.79;58.93
75387;DHT22;63966;47.914;22.266;2023-02-23T16:16:52;7.68;59.56
75387;DHT22;63966;47.914;22.266;2023-02-23T16:20:16;7.53;60.48
75387;DHT22;63966;47.914;22.266;2023-02-23T16:23:39;7.44;60.54
75387;DHT22;63966;47.914;22.266;2023-02-23T16:26:49;7.34;60.84
75387;DHT22;63966;47.914;22.266;2023-02-23T16:30:13;7.31;61.10
75387;DHT22;63966;47.914;22.266;2023-02-23T16:36:49;7.23;61.16
75387;DHT22;63966;47.914;22.266;2023-02-23T16:39:55;7.17;61.19
75387;DHT22;63966;47.914;22.266;2023-02-23T16:42:58;7.15;61.10
75387;DHT22;63966;47.914;22.266;2023-02-23T16:46:02;7.02;62.13
75387;DHT22;63966;47.914;22.266;2023-02-23T16:49:09;6.91;62.41
75387;DHT22;63966;47.914;22.266;2023-02-23T16:52:17;6.68;64.03
75387;DHT22;63966;47.914;22.266;2023-02-23T16:55:23;6.45;64.92
75387;DHT22;63966;47.914;22.266;2023-02-23T16:58:28;6.33;65.54
75387;DHT22;63966;47.914;22.266;2023-02-23T17:01:32;6.20;66.40
75387;DHT22;63966;47.914;22.266;2023-02-23T17:04:36;6.10;67.36
75387;DHT22;63966;47.914;22.266;2023-02-23T17:07:39;6.03;67.55
75387;DHT22;63966;47.914;22.266;2023-02-23T17:10:46;5.90;68.36
75387;DHT22;63966;47.914;22.266;2023-02-23T17:13:50;5.86;68.30
75387;DHT22;63966;47.914;22.266;2023-02-23T17:16:53;5.75;68.59
75387;DHT22;63966;47.914;22.266;2023-02-23T17:19:57;5.66;69.00
75387;DHT22;63966;47.914;22.266;2023-02-23T17:23:02;5.63;68.95
75387;DHT22;63966;47.914;22.266;2023-02-23T17:26:09;5.69;68.08
75387;DHT22;63966;47.914;22.266;2023-02-23T17:29:13;6.05;67.69
75387;DHT22;63966;47.914;22.266;2023-02-23T17:32:17;6.09;66.90
75387;DHT22;63966;47.914;22.266;2023-02-23T17:35:21;5.93;67.63
75387;DHT22;63966;47.914;22.266;2023-02-23T17:38:26;5.71;69.50
75387;DHT22;63966;47.914;22.266;2023-02-23T17:41:37;5.51;70.23
75387;DHT22;63966;47.914;22.266;2023-02-23T17:44:40;5.35;71.24
75387;DHT22;63966;47.914;22.266;2023-02-23T17:47:44;5.14;72.15
75387;DHT22;63966;47.914;22.266;2023-02-23T17:50:58;5.00;72.72
75387;DHT22;63966;47.914;22.266;2023-02-23T17:54:03;4.87;72.85
75387;DHT22;63966;47.914;22.266;2023-02-23T17:57:07;4.83;73.39
75387;DHT22;63966;47.914;22.266;2023-02-23T18:00:12;4.72;73.76
75387;DHT22;63966;47.914;22.266;2023-02-23T18:03:16;4.66;74.29
75387;DHT22;63966;47.914;22.266;2023-02-23T18:06:21;4.59;75.03
75387;DHT22;63966;47.914;22.266;2023-02-23T18:09:24;4.49;74.99
75387;DHT22;63966;47.914;22.266;2023-02-23T18:12:28;4.42;75.25
75387;DHT22;63966;47.914;22.266;2023-02-23T18:15:32;4.37;75.62
75387;DHT22;63966;47.914;22.266;2023-02-23T18:18:41;4.28;75.83
75387;DHT22;63966;47.914;22.266;2023-02-23T18:21:45;4.20;76.63
75387;DHT22;63966;47.914;22.266;2023-02-23T18:24:49;4.13;76.54
75387;DHT22;63966;47.914;22.266;2023-02-23T18:27:53;4.06;76.92
75387;DHT22;63966;47.914;22.266;2023-02-23T18:30:58;3.94;77.42
75387;DHT22;63966;47.914;22.266;2023-02-23T18:34:02;3.86;77.65
75387;DHT22;63966;47.914;22.266;2023-02-23T18:37:05;3.73;78.38
75387;DHT22;63966;47.914;22.266;2023-02-23T18:40:12;3.60;78.78
75387;DHT22;63966;47.914;22.266;2023-02-23T18:43:26;3.48;78.93
75387;DHT22;63966;47.914;22.266;2023-02-23T18:46:30;3.43;79.52
75387;DHT22;63966;47.914;22.266;2023-02-23T18:49:34;3.38;79.62
75387;DHT22;63966;47.914;22.266;2023-02-23T18:52:39;3.36;79.92
75387;DHT22;63966;47.914;22.266;2023-02-23T18:55:43;3.35;79.97
75387;DHT22;63966;47.914;22.266;2023-02-23T18:58:49;3.31;79.97
75387;DHT22;63966;47.914;22.266;2023-02-23T19:01:53;3.22;80.27
75387;DHT22;63966;47.914;22.266;2023-02-23T19:04:57;3.14;80.35
75387;DHT22;63966;47.914;22.266;2023-02-23T19:08:05;3.01;80.79
75387;DHT22;63966;47.914;22.266;2023-02-23T19:11:16;2.99;80.91
75387;DHT22;63966;47.914;22.266;2023-02-23T19:14:19;2.90;81.17
75387;DHT22;63966;47.914;22.266;2023-02-23T19:17:43;2.90;81.15
75387;DHT22;63966;47.914;22.266;2023-02-23T19:20:49;2.90;81.01
75387;DHT22;63966;47.914;22.266;2023-02-23T19:23:57;2.84;81.39
75387;DHT22;63966;47.914;22.266;2023-02-23T19:27:03;2.75;81.77
75387;DHT22;63966;47.914;22.266;2023-02-23T19:30:07;2.69;81.67
75387;DHT22;63966;47.914;22.266;2023-02-23T19:33:16;2.67;82.06
75387;DHT22;63966;47.914;22.266;2023-02-23T19:36:22;2.57;82.03
75387;DHT22;63966;47.914;22.266;2023-02-23T19:39:29;2.60;81.94
75387;DHT22;63966;47.914;22.266;2023-02-23T19:42:33;2.56;82.01
75387;DHT22;63966;47.914;22.266;2023-02-23T19:45:42;2.52;82.00
75387;DHT22;63966;47.914;22.266;2023-02-23T19:48:49;2.48;81.98
75387;DHT22;63966;47.914;22.266;2023-02-23T19:51:54;2.48;81.92
75387;DHT22;63966;47.914;22.266;2023-02-23T19:55:00;2.43;82.43
75387;DHT22;63966;47.914;22.266;2023-02-23T19:58:04;2.35;82.41
75387;DHT22;63966;47.914;22.266;2023-02-23T20:01:15;2.36;81.97
75387;DHT22;63966;47.914;22.266;2023-02-23T20:04:20;2.29;81.94
75387;DHT22;63966;47.914;22.266;2023-02-23T20:07:24;2.24;82.51
75387;DHT22;63966;47.914;22.266;2023-02-23T20:10:29;2.14;82.83
75387;DHT22;63966;47.914;22.266;2023-02-23T20:13:38;2.04;83.01
75387;DHT22;63966;47.914;22.266;2023-02-23T20:16:42;2.05;83.01
75387;DHT22;63966;47.914;22.266;2023-02-23T20:19:45;2.01;82.81
75387;DHT22;63966;47.914;22.266;2023-02-23T20:22:52;1.93;82.60
75387;DHT22;63966;47.914;22.266;2023-02-23T20:25:56;1.88;82.40
75387;DHT22;63966;47.914;22.266;2023-02-23T20:29:01;1.84;82.35
75387;DHT22;63966;47.914;22.266;2023-02-23T20:32:06;1.78;82.57
75387;DHT22;63966;47.914;22.266;2023-02-23T20:35:14;1.74;82.87
75387;DHT22;63966;47.914;22.266;2023-02-23T20:38:19;1.64;83.15
75387;DHT22;63966;47.914;22.266;2023-02-23T20:41:23;1.62;83.40
75387;DHT22;63966;47.914;22.266;2023-02-23T20:44:30;1.60;83.51
75387;DHT22;63966;47.914;22.266;2023-02-23T20:47:35;1.56;83.73
75387;DHT22;63966;47.914;22.266;2023-02-23T20:50:40;1.57;83.69
75387;DHT22;63966;47.914;22.266;2023-02-23T20:53:46;1.50;83.99
75387;DHT22;63966;47.914;22.266;2023-02-23T20:56:50;1.52;84.04
75387;DHT22;63966;47.914;22.266;2023-02-23T21:00:03;1.47;84.17
75387;DHT22;63966;47.914;22.266;2023-02-23T21:03:15;1.53;84.18
75387;DHT22;63966;47.914;22.266;2023-02-23T21:06:20;1.59;83.80
75387;DHT22;63966;47.914;22.266;2023-02-23T21:09:24;1.55;83.81
75387;DHT22;63966;47.914;22.266;2023-02-23T21:12:28;1.55;84.08
75387;DHT22;63966;47.914;22.266;2023-02-23T21:15:32;1.56;84.04
75387;DHT22;63966;47.914;22.266;2023-02-23T21:18:38;1.52;84.52
75387;DHT22;63966;47.914;22.266;2023-02-23T21:21:48;1.64;84.20
75387;DHT22;63966;47.914;22.266;2023-02-23T21:24:52;1.60;83.99
75387;DHT22;63966;47.914;22.266;2023-02-23T21:27:55;1.63;84.38
75387;DHT22;63966;47.914;22.266;2023-02-23T21:30:59;1.64;83.97
75387;DHT22;63966;47.914;22.266;2023-02-23T21:34:03;1.68;83.48
75387;DHT22;63966;47.914;22.266;2023-02-23T21:37:08;1.66;83.37
75387;DHT22;63966;47.914;22.266;2023-02-23T21:40:16;1.62;83.49
75387;DHT22;63966;47.914;22.266;2023-02-23T21:43:23;1.59;83.65
75387;DHT22;63966;47.914;22.266;2023-02-23T21:46:26;1.73;83.35
75387;DHT22;63966;47.914;22.266;2023-02-23T21:49:30;1.77;83.11
75387;DHT22;63966;47.914;22.266;2023-02-23T21:52:35;1.80;83.41
75387;DHT22;63966;47.914;22.266;2023-02-23T21:55:39;1.80;83.42